Главная страница
METAR-TAF:

METAR-TAF

Аэропорты :

Иркутск, Россия

широта: 52-16N, долгота: 104-19E, высота над уровнем моря: 513 м

Текущие метеонаблюдения

Эта сводка был подготовлена 43 минут назад, в 19:00 UTC
Ветер 2 Узел от восточно-северо-восточный
Температура -12°C
Влажность 92%
Давление 1019 hPa
Видимость 10 км и более
Нет облачности ниже 1500 м, и нет кучево-дождевой облачности

METAR: UIII 151900Z 06001MPS CAVOK M12/M13 Q1019 R12/820350 NOSIG RMK QFE722/0962

Время: 03:43 (19:43 UTC)

Прогноз

Эта сводка был подготовлена 2 часа и 43 минут назад, в 17:00 UTC
Прогноз действительный с 15-го 18 UTC до 16-го 18 UTC
Ветер 6 Узел от восточно-юго-восточный
Видимость 10 км и более
изменения
С 16-го 03 UTC до 16-го 05 UTC
Отдельные облака на высоте 2000 фута, Кучево-дождевые.

TAF: UIII 151700Z 1518/1618 12003MPS 9999 NSC BECMG 1603/1605 SCT020CB

Метеонаблюдения и прогнозы для более 4000 аэропортов (сводки METAR и TAF).

Имеющиеся станции представлены на карте желтыми и красными точками.

Чтобы увидеть название станции, наведите на нее мышь.

Затем щелкните, чтобы увидеть метеонаблюдения и метеопрогнозы.

Управление картой: чтобы увеличить масштаб, щелкните зеленые кнопки с черным крестиком; чтобы уменьшить масштаб, щелкните зеленую кнопку с тире; для просмотра соседних карт щелкайте зеленые стрелки.


METAR-TAF: